sensor_id;sensor_type;location;lat;lon;timestamp;pressure;altitude;pressure_sealevel;temperature;humidity
8286;BME280;4181;43.416;24.598;2023-06-10T00:01:40;99499.19;;;19.23;100.00
8286;BME280;4181;43.416;24.598;2023-06-10T00:04:06;99494.84;;;19.39;100.00
8286;BME280;4181;43.416;24.598;2023-06-10T00:06:33;99491.91;;;19.44;100.00
8286;BME280;4181;43.416;24.598;2023-06-10T00:09:05;99494.34;;;19.45;100.00
8286;BME280;4181;43.416;24.598;2023-06-10T00:11:33;99485.22;;;19.45;100.00
8286;BME280;4181;43.416;24.598;2023-06-10T00:13:59;99482.28;;;19.50;100.00
8286;BME280;4181;43.416;24.598;2023-06-10T00:16:25;99491.50;;;19.20;100.00
8286;BME280;4181;43.416;24.598;2023-06-10T00:18:51;99492.78;;;18.97;100.00
8286;BME280;4181;43.416;24.598;2023-06-10T00:21:17;99495.38;;;19.02;100.00
8286;BME280;4181;43.416;24.598;2023-06-10T00:23:42;99487.91;;;18.93;100.00
8286;BME280;4181;43.416;24.598;2023-06-10T00:26:09;99491.63;;;18.89;100.00
8286;BME280;4181;43.416;24.598;2023-06-10T00:28:34;99490.81;;;18.88;100.00
8286;BME280;4181;43.416;24.598;2023-06-10T00:31:00;99485.16;;;19.02;100.00
8286;BME280;4181;43.416;24.598;2023-06-10T00:33:25;99483.06;;;19.08;100.00
8286;BME280;4181;43.416;24.598;2023-06-10T00:35:51;99489.91;;;19.19;100.00
8286;BME280;4181;43.416;24.598;2023-06-10T00:38:17;99483.72;;;19.22;100.00
8286;BME280;4181;43.416;24.598;2023-06-10T00:40:42;99482.75;;;19.26;100.00
8286;BME280;4181;43.416;24.598;2023-06-10T00:43:08;99476.25;;;19.22;100.00
8286;BME280;4181;43.416;24.598;2023-06-10T00:45:34;99472.63;;;19.13;100.00
8286;BME280;4181;43.416;24.598;2023-06-10T00:48:00;99465.63;;;18.99;100.00
8286;BME280;4181;43.416;24.598;2023-06-10T00:50:26;99466.09;;;18.83;100.00
8286;BME280;4181;43.416;24.598;2023-06-10T00:52:53;99458.94;;;18.82;100.00
8286;BME280;4181;43.416;24.598;2023-06-10T00:55:20;99462.16;;;18.84;100.00
8286;BME280;4181;43.416;24.598;2023-06-10T00:57:46;99451.63;;;18.86;100.00
8286;BME280;4181;43.416;24.598;2023-06-10T01:00:14;99460.22;;;18.76;100.00
8286;BME280;4181;43.416;24.598;2023-06-10T01:02:41;99456.00;;;18.79;100.00
8286;BME280;4181;43.416;24.598;2023-06-10T01:05:07;99457.81;;;18.92;100.00
8286;BME280;4181;43.416;24.598;2023-06-10T01:07:40;99458.34;;;19.03;100.00
8286;BME280;4181;43.416;24.598;2023-06-10T01:12:59;99463.84;;;19.11;100.00
8286;BME280;4181;43.416;24.598;2023-06-10T01:15:36;99462.41;;;19.22;100.00
8286;BME280;4181;43.416;24.598;2023-06-10T01:18:04;99459.69;;;19.31;100.00
8286;BME280;4181;43.416;24.598;2023-06-10T01:20:35;99466.63;;;19.28;100.00
8286;BME280;4181;43.416;24.598;2023-06-10T01:23:02;99462.59;;;19.43;100.00
8286;BME280;4181;43.416;24.598;2023-06-10T01:25:29;99467.34;;;19.59;100.00
8286;BME280;4181;43.416;24.598;2023-06-10T01:28:20;99476.75;;;19.67;100.00
8286;BME280;4181;43.416;24.598;2023-06-10T01:33:19;99474.81;;;19.67;100.00
8286;BME280;4181;43.416;24.598;2023-06-10T01:35:48;99483.13;;;19.76;100.00
8286;BME280;4181;43.416;24.598;2023-06-10T01:38:15;99476.91;;;19.79;100.00
8286;BME280;4181;43.416;24.598;2023-06-10T01:40:42;99485.06;;;19.84;100.00
8286;BME280;4181;43.416;24.598;2023-06-10T01:43:08;99493.53;;;19.87;100.00
8286;BME280;4181;43.416;24.598;2023-06-10T01:45:33;99490.91;;;19.91;100.00
8286;BME280;4181;43.416;24.598;2023-06-10T01:47:59;99482.59;;;19.91;100.00
8286;BME280;4181;43.416;24.598;2023-06-10T01:50:24;99484.72;;;19.94;100.00
8286;BME280;4181;43.416;24.598;2023-06-10T01:52:50;99486.97;;;20.00;100.00
8286;BME280;4181;43.416;24.598;2023-06-10T01:55:15;99486.97;;;20.00;100.00
8286;BME280;4181;43.416;24.598;2023-06-10T01:57:41;99498.53;;;20.02;100.00
8286;BME280;4181;43.416;24.598;2023-06-10T02:00:07;99496.75;;;19.98;100.00
8286;BME280;4181;43.416;24.598;2023-06-10T02:02:33;99485.03;;;20.01;100.00
8286;BME280;4181;43.416;24.598;2023-06-10T02:04:58;99491.38;;;20.01;100.00
8286;BME280;4181;43.416;24.598;2023-06-10T02:07:24;99492.84;;;19.99;100.00
8286;BME280;4181;43.416;24.598;2023-06-10T02:09:49;99490.25;;;19.94;100.00
8286;BME280;4181;43.416;24.598;2023-06-10T02:12:15;99501.16;;;19.90;100.00
8286;BME280;4181;43.416;24.598;2023-06-10T02:14:40;99492.19;;;19.93;100.00
8286;BME280;4181;43.416;24.598;2023-06-10T02:17:06;99484.91;;;19.80;100.00
8286;BME280;4181;43.416;24.598;2023-06-10T02:19:32;99487.84;;;19.58;100.00
8286;BME280;4181;43.416;24.598;2023-06-10T02:21:57;99481.16;;;19.51;100.00
8286;BME280;4181;43.416;24.598;2023-06-10T02:24:22;99469.63;;;19.57;100.00
8286;BME280;4181;43.416;24.598;2023-06-10T02:26:48;99472.88;;;19.59;100.00
8286;BME280;4181;43.416;24.598;2023-06-10T02:29:13;99465.84;;;19.62;100.00
8286;BME280;4181;43.416;24.598;2023-06-10T02:31:39;99462.44;;;19.65;100.00
8286;BME280;4181;43.416;24.598;2023-06-10T02:34:04;99460.81;;;19.64;100.00
8286;BME280;4181;43.416;24.598;2023-06-10T02:36:30;99441.59;;;19.67;100.00
8286;BME280;4181;43.416;24.598;2023-06-10T02:38:55;99424.00;;;19.72;100.00
8286;BME280;4181;43.416;24.598;2023-06-10T02:41:21;99432.81;;;19.57;100.00
8286;BME280;4181;43.416;24.598;2023-06-10T02:43:47;99420.75;;;19.53;100.00
8286;BME280;4181;43.416;24.598;2023-06-10T02:46:12;99403.81;;;19.63;100.00
8286;BME280;4181;43.416;24.598;2023-06-10T02:48:42;99413.41;;;19.74;100.00
8286;BME280;4181;43.416;24.598;2023-06-10T02:51:09;99411.44;;;19.83;100.00
8286;BME280;4181;43.416;24.598;2023-06-10T02:53:35;99408.72;;;19.66;100.00
8286;BME280;4181;43.416;24.598;2023-06-10T02:56:00;99395.06;;;19.61;100.00
8286;BME280;4181;43.416;24.598;2023-06-10T02:58:26;99392.91;;;19.58;100.00
8286;BME280;4181;43.416;24.598;2023-06-10T03:00:51;99388.38;;;19.45;100.00
8286;BME280;4181;43.416;24.598;2023-06-10T03:03:17;99371.78;;;19.45;100.00
8286;BME280;4181;43.416;24.598;2023-06-10T03:05:42;99359.28;;;19.39;100.00
8286;BME280;4181;43.416;24.598;2023-06-10T03:08:07;99353.22;;;19.54;100.00
8286;BME280;4181;43.416;24.598;2023-06-10T03:10:33;99353.88;;;19.59;100.00
8286;BME280;4181;43.416;24.598;2023-06-10T03:13:00;99353.91;;;19.51;100.00
8286;BME280;4181;43.416;24.598;2023-06-10T03:15:25;99349.97;;;19.52;100.00
8286;BME280;4181;43.416;24.598;2023-06-10T03:17:50;99353.38;;;19.66;100.00
8286;BME280;4181;43.416;24.598;2023-06-10T03:20:16;99353.22;;;19.54;100.00
8286;BME280;4181;43.416;24.598;2023-06-10T03:22:42;99348.72;;;19.41;100.00
8286;BME280;4181;43.416;24.598;2023-06-10T03:25:08;99334.34;;;19.56;100.00
8286;BME280;4181;43.416;24.598;2023-06-10T03:27:39;99337.03;;;19.73;100.00
8286;BME280;4181;43.416;24.598;2023-06-10T03:30:05;99344.34;;;19.86;100.00
8286;BME280;4181;43.416;24.598;2023-06-10T03:32:31;99355.25;;;19.91;100.00
8286;BME280;4181;43.416;24.598;2023-06-10T03:34:56;99349.97;;;19.98;100.00
8286;BME280;4181;43.416;24.598;2023-06-10T03:37:24;99362.03;;;20.02;100.00
8286;BME280;4181;43.416;24.598;2023-06-10T03:39:49;99363.13;;;20.09;100.00
8286;BME280;4181;43.416;24.598;2023-06-10T03:42:15;99359.38;;;20.14;100.00
8286;BME280;4181;43.416;24.598;2023-06-10T03:44:40;99366.16;;;19.96;100.00
8286;BME280;4181;43.416;24.598;2023-06-10T03:47:06;99357.03;;;19.87;100.00
8286;BME280;4181;43.416;24.598;2023-06-10T03:49:31;99349.16;;;20.06;100.00
8286;BME280;4181;43.416;24.598;2023-06-10T03:51:58;99346.50;;;20.18;100.00
8286;BME280;4181;43.416;24.598;2023-06-10T03:54:24;99349.03;;;20.32;100.00
8286;BME280;4181;43.416;24.598;2023-06-10T03:56:49;99359.75;;;20.42;100.00
8286;BME280;4181;43.416;24.598;2023-06-10T03:59:15;99371.13;;;20.49;100.00
8286;BME280;4181;43.416;24.598;2023-06-10T04:01:41;99368.88;;;20.42;100.00
8286;BME280;4181;43.416;24.598;2023-06-10T04:04:07;99362.13;;;20.52;100.00
8286;BME280;4181;43.416;24.598;2023-06-10T04:06:32;99369.19;;;20.49;100.00
8286;BME280;4181;43.416;24.598;2023-06-10T04:08:58;99371.06;;;20.57;100.00
8286;BME280;4181;43.416;24.598;2023-06-10T04:11:24;99379.09;;;20.50;100.00
8286;BME280;4181;43.416;24.598;2023-06-10T04:13:49;99373.00;;;20.36;100.00
8286;BME280;4181;43.416;24.598;2023-06-10T04:16:15;99359.00;;;20.33;100.00
8286;BME280;4181;43.416;24.598;2023-06-10T04:18:41;99353.31;;;20.29;100.00
8286;BME280;4181;43.416;24.598;2023-06-10T04:21:07;99340.88;;;20.35;100.00
8286;BME280;4181;43.416;24.598;2023-06-10T04:23:34;99331.88;;;20.38;100.00
8286;BME280;4181;43.416;24.598;2023-06-10T04:26:00;99332.38;;;20.40;100.00
8286;BME280;4181;43.416;24.598;2023-06-10T04:28:25;99320.91;;;20.50;100.00
8286;BME280;4181;43.416;24.598;2023-06-10T04:30:53;99326.06;;;20.60;100.00
8286;BME280;4181;43.416;24.598;2023-06-10T04:33:18;99332.81;;;20.51;100.00
8286;BME280;4181;43.416;24.598;2023-06-10T04:35:44;99328.09;;;20.51;100.00
8286;BME280;4181;43.416;24.598;2023-06-10T04:38:10;99329.97;;;20.59;100.00
8286;BME280;4181;43.416;24.598;2023-06-10T04:40:36;99337.91;;;20.69;100.00
8286;BME280;4181;43.416;24.598;2023-06-10T04:43:01;99349.03;;;20.81;100.00
8286;BME280;4181;43.416;24.598;2023-06-10T04:45:27;99341.06;;;20.80;100.00
8286;BME280;4181;43.416;24.598;2023-06-10T04:47:53;99356.09;;;20.79;100.00
8286;BME280;4181;43.416;24.598;2023-06-10T04:50:21;99349.19;;;20.85;100.00
8286;BME280;4181;43.416;24.598;2023-06-10T04:52:46;99346.28;;;20.81;100.00
8286;BME280;4181;43.416;24.598;2023-06-10T04:55:12;99348.19;;;20.89;100.00
8286;BME280;4181;43.416;24.598;2023-06-10T04:57:38;99362.13;;;20.81;100.00
8286;BME280;4181;43.416;24.598;2023-06-10T05:00:04;99352.00;;;20.76;100.00
8286;BME280;4181;43.416;24.598;2023-06-10T05:02:31;99344.84;;;20.75;100.00
8286;BME280;4181;43.416;24.598;2023-06-10T05:04:56;99344.53;;;20.77;100.00
8286;BME280;4181;43.416;24.598;2023-06-10T05:07:23;99343.28;;;20.86;100.00
8286;BME280;4181;43.416;24.598;2023-06-10T05:09:48;99337.69;;;20.95;100.00
8286;BME280;4181;43.416;24.598;2023-06-10T05:12:14;99339.19;;;20.92;100.00
8286;BME280;4181;43.416;24.598;2023-06-10T05:14:39;99341.19;;;20.83;100.00
8286;BME280;4181;43.416;24.598;2023-06-10T05:17:05;99344.34;;;21.02;100.00
8286;BME280;4181;43.416;24.598;2023-06-10T05:19:31;99333.47;;;20.97;100.00
8286;BME280;4181;43.416;24.598;2023-06-10T05:21:57;99336.06;;;20.94;100.00
8286;BME280;4181;43.416;24.598;2023-06-10T05:24:23;99340.53;;;20.86;100.00
8286;BME280;4181;43.416;24.598;2023-06-10T05:26:48;99340.31;;;20.91;100.00
8286;BME280;4181;43.416;24.598;2023-06-10T05:29:14;99346.47;;;20.97;100.00
8286;BME280;4181;43.416;24.598;2023-06-10T05:31:41;99348.25;;;21.01;100.00
8286;BME280;4181;43.416;24.598;2023-06-10T05:34:06;99340.50;;;21.15;100.00
8286;BME280;4181;43.416;24.598;2023-06-10T05:36:32;99355.31;;;21.19;100.00
8286;BME280;4181;43.416;24.598;2023-06-10T05:38:58;99350.00;;;21.26;100.00
8286;BME280;4181;43.416;24.598;2023-06-10T05:41:23;99368.78;;;21.42;100.00
8286;BME280;4181;43.416;24.598;2023-06-10T05:43:48;99371.22;;;21.43;100.00
8286;BME280;4181;43.416;24.598;2023-06-10T05:46:14;99371.97;;;21.52;100.00
8286;BME280;4181;43.416;24.598;2023-06-10T05:48:40;99380.81;;;21.66;100.00
8286;BME280;4181;43.416;24.598;2023-06-10T05:51:05;99379.78;;;21.71;100.00
8286;BME280;4181;43.416;24.598;2023-06-10T05:53:31;99382.97;;;21.81;100.00
8286;BME280;4181;43.416;24.598;2023-06-10T05:55:57;99383.50;;;21.75;100.00
8286;BME280;4181;43.416;24.598;2023-06-10T05:58:23;99385.94;;;21.76;100.00
8286;BME280;4181;43.416;24.598;2023-06-10T06:00:49;99374.78;;;21.85;100.00
8286;BME280;4181;43.416;24.598;2023-06-10T06:03:15;99379.97;;;21.98;100.00
8286;BME280;4181;43.416;24.598;2023-06-10T06:05:40;99391.38;;;22.17;100.00
8286;BME280;4181;43.416;24.598;2023-06-10T06:08:09;99376.06;;;22.23;100.00
8286;BME280;4181;43.416;24.598;2023-06-10T06:10:34;99383.75;;;22.26;100.00
8286;BME280;4181;43.416;24.598;2023-06-10T06:13:01;99382.44;;;22.24;100.00
8286;BME280;4181;43.416;24.598;2023-06-10T06:15:28;99382.00;;;22.34;100.00
8286;BME280;4181;43.416;24.598;2023-06-10T06:17:53;99376.56;;;22.37;100.00
8286;BME280;4181;43.416;24.598;2023-06-10T06:20:19;99367.66;;;22.56;100.00
8286;BME280;4181;43.416;24.598;2023-06-10T06:22:45;99367.88;;;22.51;100.00
8286;BME280;4181;43.416;24.598;2023-06-10T06:25:11;99381.81;;;22.63;100.00
8286;BME280;4181;43.416;24.598;2023-06-10T06:27:36;99380.97;;;22.63;100.00
8286;BME280;4181;43.416;24.598;2023-06-10T06:30:02;99387.44;;;22.67;100.00
8286;BME280;4181;43.416;24.598;2023-06-10T06:32:27;99390.00;;;22.72;100.00
8286;BME280;4181;43.416;24.598;2023-06-10T06:34:53;99400.53;;;22.90;100.00
8286;BME280;4181;43.416;24.598;2023-06-10T06:37:23;99398.56;;;22.91;100.00
8286;BME280;4181;43.416;24.598;2023-06-10T06:39:53;99396.00;;;22.98;100.00
8286;BME280;4181;43.416;24.598;2023-06-10T06:42:19;99393.34;;;22.89;100.00
8286;BME280;4181;43.416;24.598;2023-06-10T06:44:46;99381.97;;;22.94;100.00
8286;BME280;4181;43.416;24.598;2023-06-10T06:47:12;99381.28;;;22.97;100.00
8286;BME280;4181;43.416;24.598;2023-06-10T06:49:37;99385.13;;;22.93;100.00
8286;BME280;4181;43.416;24.598;2023-06-10T06:52:03;99380.25;;;22.90;100.00
8286;BME280;4181;43.416;24.598;2023-06-10T06:54:29;99382.47;;;22.84;100.00
8286;BME280;4181;43.416;24.598;2023-06-10T06:56:55;99371.09;;;22.89;100.00
8286;BME280;4181;43.416;24.598;2023-06-10T06:59:20;99379.09;;;22.79;100.00
8286;BME280;4181;43.416;24.598;2023-06-10T07:01:46;99378.06;;;22.83;100.00
8286;BME280;4181;43.416;24.598;2023-06-10T07:04:14;99397.31;;;22.88;100.00
8286;BME280;4181;43.416;24.598;2023-06-10T07:06:39;99395.66;;;22.99;100.00
8286;BME280;4181;43.416;24.598;2023-06-10T07:09:05;99397.84;;;22.94;100.00
8286;BME280;4181;43.416;24.598;2023-06-10T07:11:31;99387.69;;;22.74;100.00
8286;BME280;4181;43.416;24.598;2023-06-10T07:13:57;99378.94;;;22.99;100.00
8286;BME280;4181;43.416;24.598;2023-06-10T07:16:22;99388.38;;;22.95;100.00
8286;BME280;4181;43.416;24.598;2023-06-10T07:18:48;99382.81;;;22.95;100.00
8286;BME280;4181;43.416;24.598;2023-06-10T07:21:13;99367.69;;;23.08;100.00
8286;BME280;4181;43.416;24.598;2023-06-10T07:23:42;99368.50;;;23.08;100.00
8286;BME280;4181;43.416;24.598;2023-06-10T07:26:07;99361.31;;;22.95;100.00
8286;BME280;4181;43.416;24.598;2023-06-10T07:28:36;99363.19;;;23.03;100.00
8286;BME280;4181;43.416;24.598;2023-06-10T07:31:02;99365.19;;;23.18;100.00
8286;BME280;4181;43.416;24.598;2023-06-10T07:33:28;99356.94;;;23.34;100.00
8286;BME280;4181;43.416;24.598;2023-06-10T07:35:53;99364.22;;;23.38;100.00
8286;BME280;4181;43.416;24.598;2023-06-10T07:38:19;99354.22;;;23.49;100.00
8286;BME280;4181;43.416;24.598;2023-06-10T07:40:44;99368.88;;;23.62;100.00
8286;BME280;4181;43.416;24.598;2023-06-10T07:43:10;99373.41;;;23.66;100.00
8286;BME280;4181;43.416;24.598;2023-06-10T07:45:35;99391.78;;;23.55;100.00
8286;BME280;4181;43.416;24.598;2023-06-10T07:48:01;99396.72;;;23.62;100.00
8286;BME280;4181;43.416;24.598;2023-06-10T07:50:26;99396.13;;;23.68;100.00
8286;BME280;4181;43.416;24.598;2023-06-10T07:52:52;99401.63;;;23.80;100.00
8286;BME280;4181;43.416;24.598;2023-06-10T07:55:17;99384.66;;;23.86;100.00
8286;BME280;4181;43.416;24.598;2023-06-10T07:57:43;99398.31;;;23.75;100.00
8286;BME280;4181;43.416;24.598;2023-06-10T08:00:08;99401.38;;;23.86;100.00
8286;BME280;4181;43.416;24.598;2023-06-10T08:02:34;99394.59;;;23.99;100.00
8286;BME280;4181;43.416;24.598;2023-06-10T08:04:59;99398.06;;;23.96;100.00
8286;BME280;4181;43.416;24.598;2023-06-10T08:07:25;99396.22;;;24.00;100.00
8286;BME280;4181;43.416;24.598;2023-06-10T08:09:50;99392.56;;;24.11;100.00
8286;BME280;4181;43.416;24.598;2023-06-10T08:12:16;99402.63;;;24.31;100.00
8286;BME280;4181;43.416;24.598;2023-06-10T08:14:41;99402.19;;;24.45;100.00
8286;BME280;4181;43.416;24.598;2023-06-10T08:17:07;99417.72;;;24.46;100.00
8286;BME280;4181;43.416;24.598;2023-06-10T08:19:32;99426.34;;;24.25;100.00
8286;BME280;4181;43.416;24.598;2023-06-10T08:21:58;99416.41;;;24.40;100.00
8286;BME280;4181;43.416;24.598;2023-06-10T08:24:23;99413.16;;;24.38;100.00
8286;BME280;4181;43.416;24.598;2023-06-10T08:26:49;99406.94;;;24.44;100.00
8286;BME280;4181;43.416;24.598;2023-06-10T08:29:14;99398.84;;;24.55;100.00
8286;BME280;4181;43.416;24.598;2023-06-10T08:31:43;99396.75;;;24.83;100.00
8286;BME280;4181;43.416;24.598;2023-06-10T08:34:09;99398.81;;;24.86;100.00
8286;BME280;4181;43.416;24.598;2023-06-10T08:36:35;99408.22;;;24.97;100.00
8286;BME280;4181;43.416;24.598;2023-06-10T08:39:01;99398.13;;;25.27;100.00
8286;BME280;4181;43.416;24.598;2023-06-10T08:41:28;99419.06;;;25.52;100.00
8286;BME280;4181;43.416;24.598;2023-06-10T08:44:17;99419.88;;;25.72;100.00
8286;BME280;4181;43.416;24.598;2023-06-10T08:46:47;99424.34;;;25.76;100.00
8286;BME280;4181;43.416;24.598;2023-06-10T08:49:17;99430.97;;;25.68;100.00
8286;BME280;4181;43.416;24.598;2023-06-10T08:51:43;99438.91;;;25.66;100.00
8286;BME280;4181;43.416;24.598;2023-06-10T08:54:17;99419.03;;;25.90;100.00
8286;BME280;4181;43.416;24.598;2023-06-10T08:56:48;99426.69;;;25.93;100.00
8286;BME280;4181;43.416;24.598;2023-06-10T08:59:15;99434.06;;;26.01;100.00
8286;BME280;4181;43.416;24.598;2023-06-10T09:01:42;99413.28;;;26.22;100.00
8286;BME280;4181;43.416;24.598;2023-06-10T09:04:08;99441.38;;;25.90;100.00
8286;BME280;4181;43.416;24.598;2023-06-10T09:06:34;99429.97;;;26.18;100.00
8286;BME280;4181;43.416;24.598;2023-06-10T09:09:01;99427.50;;;26.36;100.00
8286;BME280;4181;43.416;24.598;2023-06-10T09:11:27;99426.56;;;26.51;100.00
8286;BME280;4181;43.416;24.598;2023-06-10T09:13:53;99425.94;;;26.83;100.00
8286;BME280;4181;43.416;24.598;2023-06-10T09:16:18;99415.16;;;27.11;100.00
8286;BME280;4181;43.416;24.598;2023-06-10T09:18:44;99419.84;;;27.30;100.00
8286;BME280;4181;43.416;24.598;2023-06-10T09:21:09;99422.03;;;27.44;100.00
8286;BME280;4181;43.416;24.598;2023-06-10T09:23:36;99430.84;;;27.42;100.00
8286;BME280;4181;43.416;24.598;2023-06-10T09:26:02;99425.78;;;27.55;100.00
8286;BME280;4181;43.416;24.598;2023-06-10T09:28:30;99423.88;;;27.62;100.00
8286;BME280;4181;43.416;24.598;2023-06-10T09:31:03;99417.81;;;27.57;100.00
8286;BME280;4181;43.416;24.598;2023-06-10T09:33:30;99424.22;;;27.57;100.00
8286;BME280;4181;43.416;24.598;2023-06-10T09:35:56;99416.97;;;27.89;100.00
8286;BME280;4181;43.416;24.598;2023-06-10T09:38:29;99424.81;;;28.06;100.00
8286;BME280;4181;43.416;24.598;2023-06-10T09:40:55;99421.06;;;28.32;100.00
8286;BME280;4181;43.416;24.598;2023-06-10T09:43:21;99418.44;;;28.49;100.00
8286;BME280;4181;43.416;24.598;2023-06-10T09:45:48;99426.13;;;28.56;100.00
8286;BME280;4181;43.416;24.598;2023-06-10T09:48:13;99417.34;;;28.61;100.00
8286;BME280;4181;43.416;24.598;2023-06-10T09:50:43;99413.97;;;28.89;100.00
8286;BME280;4181;43.416;24.598;2023-06-10T09:53:12;99416.59;;;28.68;100.00
8286;BME280;4181;43.416;24.598;2023-06-10T09:55:41;99410.38;;;28.92;100.00
8286;BME280;4181;43.416;24.598;2023-06-10T09:58:07;99411.22;;;29.03;100.00
8286;BME280;4181;43.416;24.598;2023-06-10T10:00:33;99415.50;;;28.83;100.00
8286;BME280;4181;43.416;24.598;2023-06-10T10:02:59;99436.31;;;28.34;100.00
8286;BME280;4181;43.416;24.598;2023-06-10T10:05:25;99440.44;;;28.04;100.00
8286;BME280;4181;43.416;24.598;2023-06-10T10:07:51;99430.78;;;28.41;100.00
8286;BME280;4181;43.416;24.598;2023-06-10T10:10:18;99423.97;;;28.42;100.00
8286;BME280;4181;43.416;24.598;2023-06-10T10:12:46;99416.50;;;28.53;100.00
8286;BME280;4181;43.416;24.598;2023-06-10T10:15:12;99410.88;;;28.53;100.00
8286;BME280;4181;43.416;24.598;2023-06-10T10:17:42;99423.97;;;28.39;100.00
8286;BME280;4181;43.416;24.598;2023-06-10T10:20:12;99418.69;;;28.34;100.00
8286;BME280;4181;43.416;24.598;2023-06-10T10:22:41;99413.41;;;28.25;100.00
8286;BME280;4181;43.416;24.598;2023-06-10T10:25:12;99412.44;;;28.51;100.00
8286;BME280;4181;43.416;24.598;2023-06-10T10:27:49;99403.81;;;28.74;100.00
8286;BME280;4181;43.416;24.598;2023-06-10T10:30:17;99404.66;;;28.81;100.00
8286;BME280;4181;43.416;24.598;2023-06-10T10:33:06;99417.03;;;28.73;100.00
8286;BME280;4181;43.416;24.598;2023-06-10T10:35:36;99406.28;;;28.82;100.00
8286;BME280;4181;43.416;24.598;2023-06-10T10:38:02;99403.66;;;29.07;100.00
8286;BME280;4181;43.416;24.598;2023-06-10T10:40:28;99393.31;;;29.21;100.00
8286;BME280;4181;43.416;24.598;2023-06-10T10:42:58;99394.59;;;29.31;100.00
8286;BME280;4181;43.416;24.598;2023-06-10T10:45:27;99383.38;;;29.38;100.00
8286;BME280;4181;43.416;24.598;2023-06-10T10:47:53;99386.13;;;29.24;100.00
8286;BME280;4181;43.416;24.598;2023-06-10T10:50:22;99386.59;;;29.40;100.00
8286;BME280;4181;43.416;24.598;2023-06-10T10:52:53;99385.44;;;29.51;100.00
8286;BME280;4181;43.416;24.598;2023-06-10T10:55:19;99385.06;;;29.56;100.00
8286;BME280;4181;43.416;24.598;2023-06-10T10:57:56;99389.13;;;29.66;100.00
8286;BME280;4181;43.416;24.598;2023-06-10T11:00:28;99396.25;;;29.39;100.00
8286;BME280;4181;43.416;24.598;2023-06-10T11:02:58;99391.84;;;29.45;100.00
8286;BME280;4181;43.416;24.598;2023-06-10T11:08:02;99383.53;;;29.76;100.00
8286;BME280;4181;43.416;24.598;2023-06-10T11:13:01;99369.94;;;29.96;100.00
8286;BME280;4181;43.416;24.598;2023-06-10T11:15:31;99375.06;;;29.66;100.00
8286;BME280;4181;43.416;24.598;2023-06-10T11:29:01;99364.41;;;29.17;100.00
8286;BME280;4181;43.416;24.598;2023-06-10T11:31:42;99355.22;;;29.24;100.00
8286;BME280;4181;43.416;24.598;2023-06-10T11:34:08;99352.78;;;29.19;100.00
8286;BME280;4181;43.416;24.598;2023-06-10T11:36:36;99350.09;;;29.47;100.00
8286;BME280;4181;43.416;24.598;2023-06-10T11:39:04;99343.28;;;29.51;100.00
8286;BME280;4181;43.416;24.598;2023-06-10T11:41:31;99344.50;;;29.54;100.00
8286;BME280;4181;43.416;24.598;2023-06-10T11:44:02;99332.50;;;29.71;100.00
8286;BME280;4181;43.416;24.598;2023-06-10T11:46:28;99336.06;;;29.57;100.00
8286;BME280;4181;43.416;24.598;2023-06-10T11:48:56;99319.28;;;29.82;100.00
8286;BME280;4181;43.416;24.598;2023-06-10T11:51:24;99318.88;;;29.84;100.00
8286;BME280;4181;43.416;24.598;2023-06-10T11:53:50;99320.91;;;29.90;100.00
8286;BME280;4181;43.416;24.598;2023-06-10T11:56:34;99321.28;;;29.82;100.00
8286;BME280;4181;43.416;24.598;2023-06-10T11:59:04;99312.88;;;29.92;100.00
8286;BME280;4181;43.416;24.598;2023-06-10T12:01:32;99320.47;;;29.81;100.00
8286;BME280;4181;43.416;24.598;2023-06-10T12:03:58;99326.75;;;29.36;100.00
8286;BME280;4181;43.416;24.598;2023-06-10T12:06:24;99320.75;;;29.48;100.00
8286;BME280;4181;43.416;24.598;2023-06-10T12:08:49;99313.66;;;29.82;100.00
8286;BME280;4181;43.416;24.598;2023-06-10T12:11:15;99318.84;;;29.73;100.00
8286;BME280;4181;43.416;24.598;2023-06-10T12:13:48;99312.84;;;29.74;100.00
8286;BME280;4181;43.416;24.598;2023-06-10T12:16:15;99312.41;;;29.65;100.00
8286;BME280;4181;43.416;24.598;2023-06-10T12:18:42;99306.34;;;29.56;100.00
8286;BME280;4181;43.416;24.598;2023-06-10T12:21:23;99306.47;;;30.06;100.00
8286;BME280;4181;43.416;24.598;2023-06-10T12:24:05;99293.59;;;30.33;100.00
8286;BME280;4181;43.416;24.598;2023-06-10T12:26:44;99300.44;;;30.35;100.00
8286;BME280;4181;43.416;24.598;2023-06-10T12:29:23;99313.69;;;30.07;100.00
8286;BME280;4181;43.416;24.598;2023-06-10T12:32:03;99314.06;;;29.98;100.00
8286;BME280;4181;43.416;24.598;2023-06-10T12:34:39;99320.91;;;29.87;100.00
8286;BME280;4181;43.416;24.598;2023-06-10T12:37:09;99328.03;;;29.63;100.00
8286;BME280;4181;43.416;24.598;2023-06-10T12:39:39;99330.34;;;29.26;100.00
8286;BME280;4181;43.416;24.598;2023-06-10T12:42:05;99336.63;;;29.05;100.00
8286;BME280;4181;43.416;24.598;2023-06-10T12:44:35;99348.09;;;28.76;100.00
8286;BME280;4181;43.416;24.598;2023-06-10T12:47:10;99365.72;;;28.25;100.00
8286;BME280;4181;43.416;24.598;2023-06-10T12:49:37;99395.00;;;26.99;100.00
8286;BME280;4181;43.416;24.598;2023-06-10T12:52:04;99439.75;;;24.97;100.00
8286;BME280;4181;43.416;24.598;2023-06-10T12:54:30;99474.34;;;22.64;100.00
8286;BME280;4181;43.416;24.598;2023-06-10T12:56:55;99479.19;;;21.98;100.00
8286;BME280;4181;43.416;24.598;2023-06-10T12:59:21;99444.91;;;21.41;100.00
8286;BME280;4181;43.416;24.598;2023-06-10T13:01:51;99388.69;;;21.44;100.00
8286;BME280;4181;43.416;24.598;2023-06-10T13:04:17;99378.84;;;21.13;100.00
8286;BME280;4181;43.416;24.598;2023-06-10T13:06:43;99371.63;;;20.71;100.00
8286;BME280;4181;43.416;24.598;2023-06-10T13:09:09;99363.59;;;20.78;100.00
8286;BME280;4181;43.416;24.598;2023-06-10T13:11:35;99350.13;;;20.89;100.00
8286;BME280;4181;43.416;24.598;2023-06-10T13:14:02;99341.78;;;20.97;100.00
8286;BME280;4181;43.416;24.598;2023-06-10T13:16:28;99349.59;;;20.95;100.00
8286;BME280;4181;43.416;24.598;2023-06-10T13:18:54;99345.16;;;21.23;100.00
8286;BME280;4181;43.416;24.598;2023-06-10T13:21:19;99339.44;;;21.41;100.00